sensor_id;sensor_type;location;lat;lon;timestamp;pressure;altitude;pressure_sealevel;temperature;humidity
37132;BME280;23035;50.032;21.978;2024-02-26T00:00:57;64763.91;;;-3.89;100.00
37132;BME280;23035;50.032;21.978;2024-02-26T00:06:21;64687.00;;;-4.66;100.00
37132;BME280;23035;50.032;21.978;2024-02-26T00:11:25;64735.72;;;-4.19;100.00
37132;BME280;23035;50.032;21.978;2024-02-26T00:16:32;64753.19;;;-4.02;100.00
37132;BME280;23035;50.032;21.978;2024-02-26T00:21:40;64755.66;;;-3.92;100.00
37132;BME280;23035;50.032;21.978;2024-02-26T00:26:44;64798.13;;;-3.61;100.00
37132;BME280;23035;50.032;21.978;2024-02-26T00:31:51;64780.72;;;-3.76;100.00
37132;BME280;23035;50.032;21.978;2024-02-26T00:36:55;64786.03;;;-3.70;100.00
37132;BME280;23035;50.032;21.978;2024-02-26T00:41:59;64696.41;;;-4.59;100.00
37132;BME280;23035;50.032;21.978;2024-02-26T00:47:05;64657.59;;;-4.89;100.00
37132;BME280;23035;50.032;21.978;2024-02-26T00:52:09;64677.69;;;-4.70;100.00
37132;BME280;23035;50.032;21.978;2024-02-26T00:57:13;64744.72;;;-4.10;100.00
37132;BME280;23035;50.032;21.978;2024-02-26T01:02:19;64696.00;;;-4.57;100.00
37132;BME280;23035;50.032;21.978;2024-02-26T01:07:24;64761.88;;;-3.89;100.00
37132;BME280;23035;50.032;21.978;2024-02-26T01:12:29;64727.34;;;-4.24;100.00
37132;BME280;23035;50.032;21.978;2024-02-26T01:17:35;64755.84;;;-3.99;100.00
37132;BME280;23035;50.032;21.978;2024-02-26T01:22:39;64769.06;;;-3.87;100.00
37132;BME280;23035;50.032;21.978;2024-02-26T01:27:43;64710.41;;;-4.41;100.00
37132;BME280;23035;50.032;21.978;2024-02-26T01:32:49;64694.53;;;-4.56;100.00
37132;BME280;23035;50.032;21.978;2024-02-26T01:37:54;64714.63;;;-4.37;100.00
37132;BME280;23035;50.032;21.978;2024-02-26T01:42:59;64729.88;;;-4.24;100.00
37132;BME280;23035;50.032;21.978;2024-02-26T01:48:05;64730.94;;;-4.23;100.00
37132;BME280;23035;50.032;21.978;2024-02-26T01:53:11;64699.50;;;-4.46;100.00
37132;BME280;23035;50.032;21.978;2024-02-26T01:58:16;64763.97;;;-3.99;100.00
37132;BME280;23035;50.032;21.978;2024-02-26T02:03:22;64684.25;;;-4.71;100.00
37132;BME280;23035;50.032;21.978;2024-02-26T02:08:27;64687.00;;;-4.66;100.00
37132;BME280;23035;50.032;21.978;2024-02-26T02:13:31;64694.94;;;-4.58;100.00
37132;BME280;23035;50.032;21.978;2024-02-26T02:18:37;64672.59;;;-4.82;100.00
37132;BME280;23035;50.032;21.978;2024-02-26T02:23:43;64684.03;;;-4.64;100.00
37132;BME280;23035;50.032;21.978;2024-02-26T02:28:49;64685.00;;;-4.65;100.00
37132;BME280;23035;50.032;21.978;2024-02-26T02:33:53;64681.19;;;-4.71;100.00
37132;BME280;23035;50.032;21.978;2024-02-26T02:38:59;64676.41;;;-4.76;100.00
37132;BME280;23035;50.032;21.978;2024-02-26T02:44:04;64707.22;;;-4.44;100.00
37132;BME280;23035;50.032;21.978;2024-02-26T02:49:08;64702.66;;;-4.55;100.00
37132;BME280;23035;50.032;21.978;2024-02-26T02:54:15;64686.47;;;-4.66;100.00
37132;BME280;23035;50.032;21.978;2024-02-26T02:59:19;64727.75;;;-4.26;100.00
37132;BME280;23035;50.032;21.978;2024-02-26T03:04:24;64709.22;;;-4.44;100.00
37132;BME280;23035;50.032;21.978;2024-02-26T03:09:29;64664.25;;;-4.87;100.00
37132;BME280;23035;50.032;21.978;2024-02-26T03:14:33;64689.88;;;-4.58;100.00
37132;BME280;23035;50.032;21.978;2024-02-26T03:19:38;64678.13;;;-4.72;100.00
37132;BME280;23035;50.032;21.978;2024-02-26T03:24:43;64689.53;;;-4.66;100.00
37132;BME280;23035;50.032;21.978;2024-02-26T03:29:49;64811.88;;;-3.48;100.00
37132;BME280;23035;50.032;21.978;2024-02-26T03:34:54;64722.69;;;-4.26;100.00
37132;BME280;23035;50.032;21.978;2024-02-26T03:40:00;64773.53;;;-3.78;100.00
37132;BME280;23035;50.032;21.978;2024-02-26T03:45:06;64714.41;;;-4.42;100.00
37132;BME280;23035;50.032;21.978;2024-02-26T03:50:12;64763.78;;;-3.92;100.00
37132;BME280;23035;50.032;21.978;2024-02-26T03:55:18;64734.53;;;-4.22;100.00
37132;BME280;23035;50.032;21.978;2024-02-26T04:00:27;64691.53;;;-4.66;100.00
37132;BME280;23035;50.032;21.978;2024-02-26T04:05:33;64691.25;;;-4.62;100.00
37132;BME280;23035;50.032;21.978;2024-02-26T04:10:38;64643.59;;;-5.07;100.00
37132;BME280;23035;50.032;21.978;2024-02-26T04:15:43;64678.84;;;-4.78;100.00
37132;BME280;23035;50.032;21.978;2024-02-26T04:20:47;64660.94;;;-4.93;100.00
37132;BME280;23035;50.032;21.978;2024-02-26T04:25:55;64654.19;;;-4.97;100.00
37132;BME280;23035;50.032;21.978;2024-02-26T04:31:00;64570.28;;;-5.73;100.00
37132;BME280;23035;50.032;21.978;2024-02-26T04:36:04;64653.88;;;-4.93;100.00
37132;BME280;23035;50.032;21.978;2024-02-26T04:41:10;64748.53;;;-4.04;100.00
37132;BME280;23035;50.032;21.978;2024-02-26T04:46:14;64780.72;;;-3.76;100.00
37132;BME280;23035;50.032;21.978;2024-02-26T04:51:18;64632.91;;;-5.20;100.00
37132;BME280;23035;50.032;21.978;2024-02-26T04:56:42;64687.53;;;-4.65;100.00
37132;BME280;23035;50.032;21.978;2024-02-26T05:01:51;64694.31;;;-4.61;100.00
37132;BME280;23035;50.032;21.978;2024-02-26T05:06:55;64710.94;;;-4.40;100.00
37132;BME280;23035;50.032;21.978;2024-02-26T05:12:01;64710.09;;;-4.36;100.00
37132;BME280;23035;50.032;21.978;2024-02-26T05:17:06;64725.22;;;-4.26;100.00
37132;BME280;23035;50.032;21.978;2024-02-26T05:22:11;64720.34;;;-4.34;100.00
37132;BME280;23035;50.032;21.978;2024-02-26T05:27:16;64686.88;;;-4.68;100.00
37132;BME280;23035;50.032;21.978;2024-02-26T05:32:21;64727.75;;;-4.26;100.00
37132;BME280;23035;50.032;21.978;2024-02-26T05:37:25;64683.94;;;-4.66;100.00
37132;BME280;23035;50.032;21.978;2024-02-26T05:42:30;64743.25;;;-4.09;100.00
37132;BME280;23035;50.032;21.978;2024-02-26T05:47:34;64729.25;;;-4.27;100.00
37132;BME280;23035;50.032;21.978;2024-02-26T05:52:39;64730.28;;;-4.26;100.00
37132;BME280;23035;50.032;21.978;2024-02-26T05:57:45;64676.53;;;-4.73;100.00
37132;BME280;23035;50.032;21.978;2024-02-26T06:02:49;64680.75;;;-4.69;100.00
37132;BME280;23035;50.032;21.978;2024-02-26T06:07:53;64697.81;;;-4.50;100.00
37132;BME280;23035;50.032;21.978;2024-02-26T06:12:58;64675.88;;;-4.76;100.00
37132;BME280;23035;50.032;21.978;2024-02-26T06:18:02;64683.28;;;-4.69;100.00
37132;BME280;23035;50.032;21.978;2024-02-26T06:23:07;64663.59;;;-4.91;100.00
37132;BME280;23035;50.032;21.978;2024-02-26T06:28:12;64722.47;;;-4.31;100.00
37132;BME280;23035;50.032;21.978;2024-02-26T06:33:16;64741.75;;;-4.08;100.00
37132;BME280;23035;50.032;21.978;2024-02-26T06:38:21;64688.06;;;-4.65;100.00
37132;BME280;23035;50.032;21.978;2024-02-26T06:43:26;64708.69;;;-4.45;100.00
37132;BME280;23035;50.032;21.978;2024-02-26T06:48:30;64712.63;;;-4.36;100.00
37132;BME280;23035;50.032;21.978;2024-02-26T06:53:35;64736.88;;;-4.15;100.00
37132;BME280;23035;50.032;21.978;2024-02-26T06:58:40;64730.00;;;-4.22;100.00
37132;BME280;23035;50.032;21.978;2024-02-26T07:03:44;64727.22;;;-4.27;100.00
37132;BME280;23035;50.032;21.978;2024-02-26T07:08:48;64771.19;;;-3.85;100.00
37132;BME280;23035;50.032;21.978;2024-02-26T07:13:54;64742.06;;;-4.13;100.00
37132;BME280;23035;50.032;21.978;2024-02-26T07:18:58;64775.53;;;-3.78;100.00
37132;BME280;23035;50.032;21.978;2024-02-26T07:24:02;64754.47;;;-3.96;100.00
37132;BME280;23035;50.032;21.978;2024-02-26T07:29:08;64734.13;;;-4.20;100.00
37132;BME280;23035;50.032;21.978;2024-02-26T07:34:12;64785.50;;;-3.71;100.00
37132;BME280;23035;50.032;21.978;2024-02-26T07:39:17;64791.97;;;-3.62;100.00
37132;BME280;23035;50.032;21.978;2024-02-26T07:44:23;64811.47;;;-3.46;100.00
37132;BME280;23035;50.032;21.978;2024-02-26T07:49:28;64835.00;;;-3.19;100.00
37132;BME280;23035;50.032;21.978;2024-02-26T07:54:32;64831.06;;;-3.27;100.00
37132;BME280;23035;50.032;21.978;2024-02-26T07:59:37;64828.53;;;-3.27;100.00
37132;BME280;23035;50.032;21.978;2024-02-26T08:04:41;64859.81;;;-2.97;100.00
37132;BME280;23035;50.032;21.978;2024-02-26T08:09:46;64854.09;;;-3.00;100.00
37132;BME280;23035;50.032;21.978;2024-02-26T08:14:52;64894.16;;;-2.67;100.00
37132;BME280;23035;50.032;21.978;2024-02-26T08:19:56;64890.56;;;-2.68;100.00
37132;BME280;23035;50.032;21.978;2024-02-26T08:25:01;64930.13;;;-2.35;100.00
37132;BME280;23035;50.032;21.978;2024-02-26T08:30:12;64946.38;;;-2.12;100.00
37132;BME280;23035;50.032;21.978;2024-02-26T08:35:19;64963.22;;;-1.98;100.00
37132;BME280;23035;50.032;21.978;2024-02-26T08:40:23;65005.81;;;-1.55;100.00
37132;BME280;23035;50.032;21.978;2024-02-26T08:45:28;65042.75;;;-1.24;100.00
37132;BME280;23035;50.032;21.978;2024-02-26T08:50:32;65059.63;;;-1.10;100.00
37132;BME280;23035;50.032;21.978;2024-02-26T08:55:36;65146.25;;;-0.27;100.00
37132;BME280;23035;50.032;21.978;2024-02-26T09:00:41;65183.13;;;0.13;100.00
37132;BME280;23035;50.032;21.978;2024-02-26T09:05:45;65191.13;;;0.20;100.00
37132;BME280;23035;50.032;21.978;2024-02-26T09:10:50;65246.53;;;0.76;100.00
37132;BME280;23035;50.032;21.978;2024-02-26T09:15:55;65195.16;;;0.19;100.00
37132;BME280;23035;50.032;21.978;2024-02-26T09:20:59;65212.69;;;0.36;100.00
37132;BME280;23035;50.032;21.978;2024-02-26T09:26:05;65242.47;;;0.65;100.00
37132;BME280;23035;50.032;21.978;2024-02-26T09:31:10;65249.06;;;0.76;100.00
37132;BME280;23035;50.032;21.978;2024-02-26T09:36:14;65324.00;;;1.45;100.00
37132;BME280;23035;50.032;21.978;2024-02-26T09:41:18;65341.56;;;1.62;100.00
37132;BME280;23035;50.032;21.978;2024-02-26T09:46:25;65314.41;;;1.36;100.00
37132;BME280;23035;50.032;21.978;2024-02-26T09:51:29;65241.97;;;0.64;100.00
37132;BME280;23035;50.032;21.978;2024-02-26T09:56:35;65324.66;;;1.48;100.00
37132;BME280;23035;50.032;21.978;2024-02-26T10:01:49;65279.84;;;1.03;100.00
37132;BME280;23035;50.032;21.978;2024-02-26T10:06:54;65293.78;;;1.19;100.00
37132;BME280;23035;50.032;21.978;2024-02-26T10:11:59;65278.78;;;1.02;100.00
37132;BME280;23035;50.032;21.978;2024-02-26T10:17:07;65280.25;;;1.01;100.00
37132;BME280;23035;50.032;21.978;2024-02-26T10:22:12;65292.28;;;1.20;100.00
37132;BME280;23035;50.032;21.978;2024-02-26T10:27:16;65288.34;;;1.11;100.00
37132;BME280;23035;50.032;21.978;2024-02-26T10:32:21;65303.16;;;1.23;100.00
37132;BME280;23035;50.032;21.978;2024-02-26T10:37:26;65293.78;;;1.19;100.00
37132;BME280;23035;50.032;21.978;2024-02-26T10:42:31;65362.88;;;1.82;100.00
37132;BME280;23035;50.032;21.978;2024-02-26T10:47:37;65424.03;;;2.38;99.41
37132;BME280;23035;50.032;21.978;2024-02-26T10:52:42;65398.00;;;2.16;100.00
37132;BME280;23035;50.032;21.978;2024-02-26T10:57:47;65438.59;;;2.57;95.05
37132;BME280;23035;50.032;21.978;2024-02-26T11:02:53;65405.81;;;2.18;97.84
37132;BME280;23035;50.032;21.978;2024-02-26T11:07:58;65401.41;;;2.24;100.00
37132;BME280;23035;50.032;21.978;2024-02-26T11:13:04;65435.31;;;2.51;93.64
37132;BME280;23035;50.032;21.978;2024-02-26T11:18:10;65352.84;;;1.75;99.96
37132;BME280;23035;50.032;21.978;2024-02-26T11:23:16;65368.28;;;1.90;97.00
37132;BME280;23035;50.032;21.978;2024-02-26T11:28:20;65366.81;;;1.91;98.21
37132;BME280;23035;50.032;21.978;2024-02-26T11:33:28;65380.97;;;1.99;98.22
37132;BME280;23035;50.032;21.978;2024-02-26T11:38:33;65464.59;;;2.79;92.06
37132;BME280;23035;50.032;21.978;2024-02-26T11:43:57;65440.81;;;2.62;96.20
37132;BME280;23035;50.032;21.978;2024-02-26T11:49:31;65387.03;;;2.10;95.28
37132;BME280;23035;50.032;21.978;2024-02-26T11:54:40;65422.19;;;2.44;96.63
37132;BME280;23035;50.032;21.978;2024-02-26T11:59:47;65566.44;;;3.77;88.22
37132;BME280;23035;50.032;21.978;2024-02-26T12:04:54;65499.78;;;3.13;85.92
37132;BME280;23035;50.032;21.978;2024-02-26T12:10:15;65414.22;;;2.36;88.70
37132;BME280;23035;50.032;21.978;2024-02-26T12:15:19;65447.03;;;2.63;89.25
37132;BME280;23035;50.032;21.978;2024-02-26T12:20:28;65480.06;;;2.94;87.78
37132;BME280;23035;50.032;21.978;2024-02-26T12:25:32;65484.34;;;2.98;85.24
37132;BME280;23035;50.032;21.978;2024-02-26T12:30:36;65465.25;;;2.82;86.10
37132;BME280;23035;50.032;21.978;2024-02-26T12:35:42;65492.75;;;3.04;83.92
37132;BME280;23035;50.032;21.978;2024-02-26T12:40:47;65538.25;;;3.52;81.10
37132;BME280;23035;50.032;21.978;2024-02-26T12:45:52;65483.69;;;2.95;84.21
37132;BME280;23035;50.032;21.978;2024-02-26T12:50:57;65479.53;;;2.94;85.35
37132;BME280;23035;50.032;21.978;2024-02-26T12:56:03;65469.41;;;2.84;86.36
37132;BME280;23035;50.032;21.978;2024-02-26T13:01:14;65449.88;;;2.70;87.15
37132;BME280;23035;50.032;21.978;2024-02-26T13:06:20;65482.31;;;2.99;85.43
37132;BME280;23035;50.032;21.978;2024-02-26T13:11:25;65416.56;;;2.31;89.45
37132;BME280;23035;50.032;21.978;2024-02-26T13:16:31;65401.22;;;2.19;91.46
37132;BME280;23035;50.032;21.978;2024-02-26T13:21:37;65436.03;;;2.57;90.42
37132;BME280;23035;50.032;21.978;2024-02-26T13:26:42;65472.81;;;2.92;89.97
37132;BME280;23035;50.032;21.978;2024-02-26T13:31:46;65452.34;;;2.68;89.08
37132;BME280;23035;50.032;21.978;2024-02-26T13:36:52;65487.63;;;3.04;87.19
37132;BME280;23035;50.032;21.978;2024-02-26T13:41:56;65414.00;;;2.31;90.21
37132;BME280;23035;50.032;21.978;2024-02-26T13:47:01;65388.63;;;2.12;92.55
37132;BME280;23035;50.032;21.978;2024-02-26T13:52:06;65323.56;;;1.47;94.11
37132;BME280;23035;50.032;21.978;2024-02-26T13:57:15;65370.31;;;1.89;94.46
37132;BME280;23035;50.032;21.978;2024-02-26T14:02:22;65379.16;;;1.93;95.96
37132;BME280;23035;50.032;21.978;2024-02-26T14:07:28;65426.78;;;2.43;93.28
37132;BME280;23035;50.032;21.978;2024-02-26T14:12:33;65368.72;;;1.88;94.95
37132;BME280;23035;50.032;21.978;2024-02-26T14:17:36;65311.75;;;1.33;99.15
37132;BME280;23035;50.032;21.978;2024-02-26T14:22:45;65347.44;;;1.67;98.23
37132;BME280;23035;50.032;21.978;2024-02-26T14:27:49;65385.88;;;2.07;95.73
37132;BME280;23035;50.032;21.978;2024-02-26T14:32:56;65344.31;;;1.67;95.56
37132;BME280;23035;50.032;21.978;2024-02-26T14:38:02;65378.84;;;1.97;95.17
37132;BME280;23035;50.032;21.978;2024-02-26T14:43:08;65346.34;;;1.66;96.05
37132;BME280;23035;50.032;21.978;2024-02-26T14:48:13;65416.13;;;2.33;94.02
37132;BME280;23035;50.032;21.978;2024-02-26T14:53:19;65471.97;;;2.84;89.20
37132;BME280;23035;50.032;21.978;2024-02-26T14:58:23;65508.53;;;3.26;87.51
37132;BME280;23035;50.032;21.978;2024-02-26T15:03:27;65643.25;;;4.50;82.76
37132;BME280;23035;50.032;21.978;2024-02-26T15:08:33;65647.72;;;4.59;81.55
37132;BME280;23035;50.032;21.978;2024-02-26T15:13:36;65741.69;;;5.48;76.36
37132;BME280;23035;50.032;21.978;2024-02-26T15:18:40;65731.88;;;5.34;75.45
37132;BME280;23035;50.032;21.978;2024-02-26T15:23:46;65664.81;;;4.75;80.14
37132;BME280;23035;50.032;21.978;2024-02-26T15:29:06;65640.59;;;4.47;83.07
37132;BME280;23035;50.032;21.978;2024-02-26T15:34:11;65542.97;;;3.54;86.59
37132;BME280;23035;50.032;21.978;2024-02-26T15:39:17;65452.44;;;2.70;93.32
37132;BME280;23035;50.032;21.978;2024-02-26T15:44:23;65384.25;;;2.05;100.00
37132;BME280;23035;50.032;21.978;2024-02-26T15:49:27;65306.88;;;1.26;100.00
37132;BME280;23035;50.032;21.978;2024-02-26T15:54:37;65293.97;;;1.24;100.00
37132;BME280;23035;50.032;21.978;2024-02-26T15:59:41;65358.63;;;1.78;100.00
37132;BME280;23035;50.032;21.978;2024-02-26T16:04:45;65332.00;;;1.53;100.00
37132;BME280;23035;50.032;21.978;2024-02-26T16:09:52;65343.59;;;1.61;100.00
37132;BME280;23035;50.032;21.978;2024-02-26T16:14:56;65345.41;;;1.68;100.00
37132;BME280;23035;50.032;21.978;2024-02-26T16:20:03;65311.75;;;1.33;100.00
37132;BME280;23035;50.032;21.978;2024-02-26T16:25:09;65292.69;;;1.18;100.00
37132;BME280;23035;50.032;21.978;2024-02-26T16:30:13;65344.13;;;1.62;100.00
37132;BME280;23035;50.032;21.978;2024-02-26T16:35:17;65296.34;;;1.19;100.00
37132;BME280;23035;50.032;21.978;2024-02-26T16:40:25;65293.66;;;1.16;100.00
37132;BME280;23035;50.032;21.978;2024-02-26T16:45:29;65248.75;;;0.80;100.00
37132;BME280;23035;50.032;21.978;2024-02-26T16:50:33;65249.59;;;0.76;100.00
37132;BME280;23035;50.032;21.978;2024-02-26T16:55:38;65278.25;;;1.01;100.00
37132;BME280;23035;50.032;21.978;2024-02-26T17:00:42;65263.34;;;0.87;100.00
37132;BME280;23035;50.032;21.978;2024-02-26T17:05:47;65295.16;;;1.15;100.00
37132;BME280;23035;50.032;21.978;2024-02-26T17:10:53;65282.19;;;1.10;100.00
37132;BME280;23035;50.032;21.978;2024-02-26T17:15:57;65223.34;;;0.46;100.00
37132;BME280;23035;50.032;21.978;2024-02-26T17:21:01;65158.16;;;-0.11;100.00
37132;BME280;23035;50.032;21.978;2024-02-26T17:26:06;65271.31;;;0.95;100.00
37132;BME280;23035;50.032;21.978;2024-02-26T17:31:11;65283.66;;;1.09;100.00
37132;BME280;23035;50.032;21.978;2024-02-26T17:36:15;65261.75;;;0.85;100.00
37132;BME280;23035;50.032;21.978;2024-02-26T17:41:21;65225.69;;;0.53;100.00
37132;BME280;23035;50.032;21.978;2024-02-26T17:46:25;65173.47;;;0.01;100.00
37132;BME280;23035;50.032;21.978;2024-02-26T17:51:30;65205.47;;;0.34;100.00
37132;BME280;23035;50.032;21.978;2024-02-26T17:56:37;65128.38;;;-0.40;100.00
37132;BME280;23035;50.032;21.978;2024-02-26T18:01:41;65134.47;;;-0.29;100.00
37132;BME280;23035;50.032;21.978;2024-02-26T18:06:45;65155.81;;;-0.18;100.00
37132;BME280;23035;50.032;21.978;2024-02-26T18:11:53;65171.31;;;-0.01;100.00
37132;BME280;23035;50.032;21.978;2024-02-26T18:16:57;65133.06;;;-0.38;100.00
37132;BME280;23035;50.032;21.978;2024-02-26T18:22:03;65202.69;;;0.29;100.00
37132;BME280;23035;50.032;21.978;2024-02-26T18:27:09;65152.84;;;-0.16;100.00
37132;BME280;23035;50.032;21.978;2024-02-26T18:32:13;65169.31;;;-0.01;100.00
37132;BME280;23035;50.032;21.978;2024-02-26T18:37:18;65143.69;;;-0.27;100.00
37132;BME280;23035;50.032;21.978;2024-02-26T18:42:24;65130.00;;;-0.38;100.00
37132;BME280;23035;50.032;21.978;2024-02-26T18:47:28;65147.94;;;-0.23;100.00
37132;BME280;23035;50.032;21.978;2024-02-26T18:52:32;65142.13;;;-0.29;100.00
37132;BME280;23035;50.032;21.978;2024-02-26T18:57:38;65127.31;;;-0.41;100.00
37132;BME280;23035;50.032;21.978;2024-02-26T19:02:44;65113.28;;;-0.59;100.00
37132;BME280;23035;50.032;21.978;2024-02-26T19:07:48;65109.91;;;-0.55;100.00
37132;BME280;23035;50.032;21.978;2024-02-26T19:12:59;65033.19;;;-1.33;100.00
37132;BME280;23035;50.032;21.978;2024-02-26T19:18:03;64957.94;;;-2.03;100.00
37132;BME280;23035;50.032;21.978;2024-02-26T19:23:09;64895.66;;;-2.68;100.00
37132;BME280;23035;50.032;21.978;2024-02-26T19:28:17;64830.53;;;-3.28;100.00
37132;BME280;23035;50.032;21.978;2024-02-26T19:33:21;64819.53;;;-3.36;100.00
37132;BME280;23035;50.032;21.978;2024-02-26T19:38:25;64850.16;;;-3.09;100.00
37132;BME280;23035;50.032;21.978;2024-02-26T19:43:31;64827.91;;;-3.30;100.00
37132;BME280;23035;50.032;21.978;2024-02-26T19:48:35;64808.91;;;-3.46;100.00
37132;BME280;23035;50.032;21.978;2024-02-26T19:53:40;64828.53;;;-3.27;100.00
37132;BME280;23035;50.032;21.978;2024-02-26T19:58:46;64773.44;;;-3.80;100.00
37132;BME280;23035;50.032;21.978;2024-02-26T20:03:50;64795.69;;;-3.59;100.00
37132;BME280;23035;50.032;21.978;2024-02-26T20:08:54;64831.72;;;-3.24;100.00
37132;BME280;23035;50.032;21.978;2024-02-26T20:14:01;64828.00;;;-3.28;100.00
37132;BME280;23035;50.032;21.978;2024-02-26T20:19:06;64753.50;;;-4.07;100.00
37132;BME280;23035;50.032;21.978;2024-02-26T20:24:12;64746.53;;;-4.04;100.00
37132;BME280;23035;50.032;21.978;2024-02-26T20:29:17;64802.16;;;-3.50;100.00
37132;BME280;23035;50.032;21.978;2024-02-26T20:34:22;64839.03;;;-3.20;100.00
37132;BME280;23035;50.032;21.978;2024-02-26T20:39:31;64766.53;;;-3.87;100.00
37132;BME280;23035;50.032;21.978;2024-02-26T20:44:40;64763.25;;;-3.92;100.00
37132;BME280;23035;50.032;21.978;2024-02-26T20:49:47;64748.94;;;-4.06;100.00
37132;BME280;23035;50.032;21.978;2024-02-26T20:55:16;64759.13;;;-3.94;100.00
37132;BME280;23035;50.032;21.978;2024-02-26T21:07:29;64732.00;;;-4.22;100.00
37132;BME280;23035;50.032;21.978;2024-02-26T21:12:48;64726.72;;;-4.27;100.00
37132;BME280;23035;50.032;21.978;2024-02-26T21:17:59;64835.44;;;-3.21;100.00
37132;BME280;23035;50.032;21.978;2024-02-26T21:23:05;64844.56;;;-3.09;100.00
37132;BME280;23035;50.032;21.978;2024-02-26T21:28:15;64706.28;;;-4.42;100.00
37132;BME280;23035;50.032;21.978;2024-02-26T21:33:25;64735.81;;;-4.16;100.00
37132;BME280;23035;50.032;21.978;2024-02-26T21:38:37;64757.31;;;-4.00;100.00
37132;BME280;23035;50.032;21.978;2024-02-26T21:43:55;64794.09;;;-3.60;100.00
37132;BME280;23035;50.032;21.978;2024-02-26T21:49:00;64728.81;;;-4.25;100.00
37132;BME280;23035;50.032;21.978;2024-02-26T21:54:04;64715.59;;;-4.38;100.00
37132;BME280;23035;50.032;21.978;2024-02-26T21:59:09;64795.56;;;-3.61;100.00
37132;BME280;23035;50.032;21.978;2024-02-26T22:04:14;64746.84;;;-4.08;100.00
37132;BME280;23035;50.032;21.978;2024-02-26T22:09:19;64789.22;;;-3.67;100.00
37132;BME280;23035;50.032;21.978;2024-02-26T22:14:24;64830.78;;;-3.23;100.00
37132;BME280;23035;50.032;21.978;2024-02-26T22:19:32;64804.78;;;-3.48;100.00
37132;BME280;23035;50.032;21.978;2024-02-26T22:24:36;64793.47;;;-3.63;100.00
37132;BME280;23035;50.032;21.978;2024-02-26T22:29:41;64746.94;;;-4.06;100.00
37132;BME280;23035;50.032;21.978;2024-02-26T22:34:46;64768.13;;;-3.85;100.00
37132;BME280;23035;50.032;21.978;2024-02-26T22:39:50;64847.72;;;-3.06;100.00
37132;BME280;23035;50.032;21.978;2024-02-26T22:44:54;64739.94;;;-4.15;100.00
37132;BME280;23035;50.032;21.978;2024-02-26T22:50:00;64733.47;;;-4.23;100.00
37132;BME280;23035;50.032;21.978;2024-02-26T22:55:07;64722.69;;;-4.26;100.00
37132;BME280;23035;50.032;21.978;2024-02-26T23:00:12;64656.81;;;-4.95;100.00
37132;BME280;23035;50.032;21.978;2024-02-26T23:05:31;64561.59;;;-5.86;100.00
37132;BME280;23035;50.032;21.978;2024-02-26T23:10:37;64537.28;;;-6.10;100.00
37132;BME280;23035;50.032;21.978;2024-02-26T23:15:41;64484.22;;;-6.66;100.00
37132;BME280;23035;50.032;21.978;2024-02-26T23:20:47;64492.91;;;-6.52;100.00
37132;BME280;23035;50.032;21.978;2024-02-26T23:25:51;64525.03;;;-6.24;100.00
37132;BME280;23035;50.032;21.978;2024-02-26T23:30:55;64462.69;;;-6.84;100.00
37132;BME280;23035;50.032;21.978;2024-02-26T23:36:00;64500.31;;;-6.45;100.00
37132;BME280;23035;50.032;21.978;2024-02-26T23:41:04;64558.44;;;-5.89;100.00
37132;BME280;23035;50.032;21.978;2024-02-26T23:46:09;64511.81;;;-6.37;100.00
37132;BME280;23035;50.032;21.978;2024-02-26T23:51:14;64511.28;;;-6.37;100.00
37132;BME280;23035;50.032;21.978;2024-02-26T23:56:18;64535.06;;;-6.14;100.00
